sensor_id;sensor_type;location;lat;lon;timestamp;temperature;humidity
74220;DHT22;62580;54.416;11.120;2022-07-29T06:53:27;19.40;61.50
74220;DHT22;62580;54.416;11.120;2022-07-29T07:03:28;20.30;59.30
74220;DHT22;62580;54.416;11.120;2022-07-29T07:13:31;20.90;58.50
74220;DHT22;62580;54.416;11.120;2022-07-29T07:23:31;21.30;57.50
74220;DHT22;62580;54.416;11.120;2022-07-29T07:33:34;21.60;56.40
74220;DHT22;62580;54.416;11.120;2022-07-29T07:43:34;21.90;55.50
74220;DHT22;62580;54.416;11.120;2022-07-29T07:53:37;22.30;54.90
74220;DHT22;62580;54.416;11.120;2022-07-29T08:03:37;22.50;54.10
74220;DHT22;62580;54.416;11.120;2022-07-29T08:13:39;22.70;53.10
74220;DHT22;62580;54.416;11.120;2022-07-29T08:23:40;23.10;51.20
74220;DHT22;62580;54.416;11.120;2022-07-29T08:33:42;23.50;50.40
74220;DHT22;62580;54.416;11.120;2022-07-29T08:43:43;24.00;49.70
74220;DHT22;62580;54.416;11.120;2022-07-29T08:53:47;24.60;48.70
74220;DHT22;62580;54.416;11.120;2022-07-29T09:03:49;24.70;47.50
74220;DHT22;62580;54.416;11.120;2022-07-29T09:13:51;24.60;47.50
74220;DHT22;62580;54.416;11.120;2022-07-29T09:24:04;24.60;47.70
74220;DHT22;62580;54.416;11.120;2022-07-29T09:34:07;24.30;46.80
74220;DHT22;62580;54.416;11.120;2022-07-29T09:44:11;24.80;45.50
74220;DHT22;62580;54.416;11.120;2022-07-29T09:54:23;24.80;45.00
74220;DHT22;62580;54.416;11.120;2022-07-29T10:04:36;25.30;45.10
74220;DHT22;62580;54.416;11.120;2022-07-29T10:14:38;25.60;43.50
74220;DHT22;62580;54.416;11.120;2022-07-29T10:24:40;25.60;44.50
74220;DHT22;62580;54.416;11.120;2022-07-29T10:34:57;25.60;42.80
74220;DHT22;62580;54.416;11.120;2022-07-29T10:45:03;25.60;42.50
74220;DHT22;62580;54.416;11.120;2022-07-29T10:55:06;26.30;40.50
74220;DHT22;62580;54.416;11.120;2022-07-29T11:05:08;26.10;40.50
74220;DHT22;62580;54.416;11.120;2022-07-29T11:15:12;26.20;40.20
74220;DHT22;62580;54.416;11.120;2022-07-29T11:25:13;26.20;41.20
74220;DHT22;62580;54.416;11.120;2022-07-29T11:35:17;26.30;40.30
74220;DHT22;62580;54.416;11.120;2022-07-29T11:45:23;26.30;41.70
74220;DHT22;62580;54.416;11.120;2022-07-29T11:55:25;26.00;42.50
74220;DHT22;62580;54.416;11.120;2022-07-29T12:05:35;25.80;42.90
74220;DHT22;62580;54.416;11.120;2022-07-29T12:15:41;25.90;42.50
74220;DHT22;62580;54.416;11.120;2022-07-29T12:25:43;26.00;43.30
74220;DHT22;62580;54.416;11.120;2022-07-29T12:35:47;26.00;42.00
74220;DHT22;62580;54.416;11.120;2022-07-29T12:45:49;26.30;40.90
74220;DHT22;62580;54.416;11.120;2022-07-29T12:55:54;26.30;41.90
74220;DHT22;62580;54.416;11.120;2022-07-29T13:05:55;25.80;43.50
74220;DHT22;62580;54.416;11.120;2022-07-29T13:16:07;25.40;45.50
74220;DHT22;62580;54.416;11.120;2022-07-29T13:26:09;25.10;47.50
74220;DHT22;62580;54.416;11.120;2022-07-29T13:36:11;25.10;48.80
74220;DHT22;62580;54.416;11.120;2022-07-29T13:46:11;24.60;50.20
74220;DHT22;62580;54.416;11.120;2022-07-29T13:56:13;24.30;52.00
74220;DHT22;62580;54.416;11.120;2022-07-29T14:06:14;24.20;52.70
74220;DHT22;62580;54.416;11.120;2022-07-29T14:16:16;24.10;53.10
74220;DHT22;62580;54.416;11.120;2022-07-29T14:26:17;23.70;54.00
74220;DHT22;62580;54.416;11.120;2022-07-29T14:36:19;23.90;54.10
74220;DHT22;62580;54.416;11.120;2022-07-29T14:46:19;23.70;54.20
74220;DHT22;62580;54.416;11.120;2022-07-29T15:16:47;23.50;54.00
74220;DHT22;62580;54.416;11.120;2022-07-29T15:26:48;23.40;55.40
74220;DHT22;62580;54.416;11.120;2022-07-29T15:36:50;22.90;58.00
74220;DHT22;62580;54.416;11.120;2022-07-29T15:46:51;23.10;57.00
74220;DHT22;62580;54.416;11.120;2022-07-29T15:56:54;22.90;57.60
74220;DHT22;62580;54.416;11.120;2022-07-29T16:06:54;23.10;57.70
74220;DHT22;62580;54.416;11.120;2022-07-29T16:16:57;22.70;59.10
74220;DHT22;62580;54.416;11.120;2022-07-29T16:26:58;22.70;59.10
74220;DHT22;62580;54.416;11.120;2022-07-29T16:37:00;22.50;59.70
74220;DHT22;62580;54.416;11.120;2022-07-29T16:47:01;22.50;59.70
74220;DHT22;62580;54.416;11.120;2022-07-29T16:57:03;22.30;60.40
74220;DHT22;62580;54.416;11.120;2022-07-29T17:07:04;22.30;60.20
74220;DHT22;62580;54.416;11.120;2022-07-29T17:17:06;22.10;60.40
74220;DHT22;62580;54.416;11.120;2022-07-29T17:27:07;21.80;61.40
74220;DHT22;62580;54.416;11.120;2022-07-29T17:37:10;21.80;61.80
74220;DHT22;62580;54.416;11.120;2022-07-29T18:34:01;21.20;65.20
74220;DHT22;62580;54.416;11.120;2022-07-29T18:44:05;22.60;60.60
74220;DHT22;62580;54.416;11.120;2022-07-29T18:54:07;22.40;60.80
74220;DHT22;62580;54.416;11.120;2022-07-29T19:04:08;22.00;62.00
74220;DHT22;62580;54.416;11.120;2022-07-29T19:14:10;21.80;62.60
74220;DHT22;62580;54.416;11.120;2022-07-29T19:24:10;21.60;63.30
74220;DHT22;62580;54.416;11.120;2022-07-29T19:34:12;21.40;64.00
74220;DHT22;62580;54.416;11.120;2022-07-29T19:44:13;21.30;63.90
74220;DHT22;62580;54.416;11.120;2022-07-29T19:54:15;21.10;64.20
74220;DHT22;62580;54.416;11.120;2022-07-29T20:04:17;21.00;65.00
74220;DHT22;62580;54.416;11.120;2022-07-29T20:14:19;20.90;65.50
74220;DHT22;62580;54.416;11.120;2022-07-29T20:24:20;20.80;65.90
74220;DHT22;62580;54.416;11.120;2022-07-29T20:34:22;20.70;66.10
74220;DHT22;62580;54.416;11.120;2022-07-29T20:44:23;20.70;66.70
74220;DHT22;62580;54.416;11.120;2022-07-29T20:54:25;20.50;67.40
74220;DHT22;62580;54.416;11.120;2022-07-29T21:04:25;20.40;68.00
74220;DHT22;62580;54.416;11.120;2022-07-29T21:14:27;20.40;68.30
74220;DHT22;62580;54.416;11.120;2022-07-29T21:24:28;20.30;68.90
74220;DHT22;62580;54.416;11.120;2022-07-29T21:34:30;20.20;69.00
74220;DHT22;62580;54.416;11.120;2022-07-29T21:44:31;20.10;69.50
74220;DHT22;62580;54.416;11.120;2022-07-29T21:54:33;20.10;69.40
74220;DHT22;62580;54.416;11.120;2022-07-29T22:04:34;20.10;69.60
74220;DHT22;62580;54.416;11.120;2022-07-29T22:14:36;20.60;65.30
74220;DHT22;62580;54.416;11.120;2022-07-29T22:24:37;20.80;63.20
74220;DHT22;62580;54.416;11.120;2022-07-29T22:34:39;20.80;62.00
74220;DHT22;62580;54.416;11.120;2022-07-29T22:44:39;20.80;61.20
74220;DHT22;62580;54.416;11.120;2022-07-29T22:54:41;20.80;61.90
74220;DHT22;62580;54.416;11.120;2022-07-29T23:04:42;21.20;62.70
74220;DHT22;62580;54.416;11.120;2022-07-29T23:14:44;21.10;64.60
74220;DHT22;62580;54.416;11.120;2022-07-29T23:24:45;20.90;65.30
74220;DHT22;62580;54.416;11.120;2022-07-29T23:34:47;20.80;66.30
74220;DHT22;62580;54.416;11.120;2022-07-29T23:44:48;20.80;66.80
74220;DHT22;62580;54.416;11.120;2022-07-29T23:54:50;20.70;67.40
